Time;durP1;ratioP1;P1;durP2;ratioP2;P2;SDS_P1;SDS_P2;PMS_P1;PMS_P2;Temp;Humidity;BMP_temperature;BMP_pressure;BME280_temperature;BME280_humidity;BME280_pressure;Samples;Min_cycle;Max_cycle;Signal;HPM_P1;HPM_P2
2021/03/21 00:01:27;;;;;;;;;;;4.30;92.50;;;;;;4993636;28;91966;-68
2021/03/21 00:03:53;;;;;;;;;;;4.30;92.50;;;;;;4993191;28;92180;-68
2021/03/21 00:06:19;;;;;;;;;;;4.30;92.50;;;;;;4999044;28;92490;-68
2021/03/21 00:08:45;;;;;;;;;;;4.30;92.50;;;;;;4997399;28;93146;-68
2021/03/21 00:11:10;;;;;;;;;;;4.30;92.50;;;;;;4997436;28;93346;-68
2021/03/21 00:13:36;;;;;;;;;;;4.30;92.50;;;;;;4995870;28;93375;-68
2021/03/21 00:16:02;;;;;;;;;;;4.30;92.50;;;;;;4995913;28;92232;-68
2021/03/21 00:18:29;;;;;;;;;;;4.30;92.50;;;;;;4998366;28;93442;-68
2021/03/21 00:20:55;;;;;;;;;;;4.30;92.50;;;;;;4999107;28;92786;-68
2021/03/21 00:23:21;;;;;;;;;;;4.30;92.50;;;;;;4999282;28;92302;-68
2021/03/21 00:25:46;;;;;;;;;;;4.30;92.50;;;;;;4998799;28;91939;-67
2021/03/21 00:28:13;;;;;;;;;;;4.30;92.50;;;;;;4999794;28;92803;-68
2021/03/21 00:30:40;;;;;;;;;;;4.30;92.50;;;;;;4996469;28;92411;-68
2021/03/21 00:33:06;;;;;;;;;;;4.30;92.50;;;;;;4994617;28;94144;-68
2021/03/21 00:35:32;;;;;;;;;;;4.30;92.50;;;;;;4996100;28;92200;-68
2021/03/21 00:37:59;;;;;;;;;;;4.30;92.50;;;;;;4997241;28;92217;-68
2021/03/21 00:40:25;;;;;;;;;;;4.30;92.40;;;;;;4996249;28;92791;-68
2021/03/21 00:42:51;;;;;;;;;;;4.30;92.40;;;;;;4996011;28;92231;-68
2021/03/21 00:45:18;;;;;;;;;;;4.20;92.50;;;;;;4995850;28;92470;-68
2021/03/21 00:47:43;;;;;;;;;;;4.30;92.40;;;;;;4995520;28;93219;-68
2021/03/21 00:50:11;;;;;;;;;;;4.30;92.40;;;;;;5000494;28;91545;-68
2021/03/21 00:52:37;;;;;;;;;;;4.20;92.40;;;;;;4995460;28;93295;-67
2021/03/21 00:55:03;;;;;;;;;;;4.20;92.40;;;;;;4996084;28;92164;-68
2021/03/21 00:57:29;;;;;;;;;;;4.30;92.40;;;;;;4996008;28;93883;-68
2021/03/21 00:59:54;;;;;;;;;;;4.20;92.40;;;;;;4997031;28;93215;-68
2021/03/21 01:02:20;;;;;;;;;;;4.20;92.40;;;;;;4998708;28;92307;-68
2021/03/21 01:04:47;;;;;;;;;;;4.30;92.40;;;;;;4999220;28;92190;-67
2021/03/21 01:07:12;;;;;;;;;;;4.20;92.50;;;;;;4997040;28;93326;-68
2021/03/21 01:09:38;;;;;;;;;;;4.30;92.40;;;;;;4998605;28;92168;-68
2021/03/21 01:12:04;;;;;;;;;;;4.30;92.40;;;;;;5001955;28;92229;-68
2021/03/21 01:14:29;;;;;;;;;;;4.20;92.50;;;;;;4997778;28;92272;-68
2021/03/21 01:16:55;;;;;;;;;;;4.20;92.40;;;;;;4994960;28;93716;-68
2021/03/21 01:19:21;;;;;;;;;;;4.20;92.50;;;;;;4995424;28;93011;-68
2021/03/21 01:21:47;;;;;;;;;;;4.20;92.50;;;;;;4996132;28;93196;-68
2021/03/21 01:24:14;;;;;;;;;;;4.20;92.50;;;;;;4995522;28;93458;-68
2021/03/21 01:26:39;;;;;;;;;;;4.20;92.50;;;;;;4994953;28;93163;-68
2021/03/21 01:29:05;;;;;;;;;;;4.20;92.50;;;;;;4996642;28;93897;-68
2021/03/21 01:31:31;;;;;;;;;;;4.20;92.50;;;;;;4995144;28;93076;-67
2021/03/21 01:33:57;;;;;;;;;;;4.20;92.50;;;;;;4997606;28;93303;-68
2021/03/21 01:36:26;;;;;;;;;;;4.20;92.50;;;;;;4995564;28;92181;-67
2021/03/21 01:38:52;;;;;;;;;;;4.20;92.50;;;;;;4998554;28;92360;-68
2021/03/21 01:41:19;;;;;;;;;;;4.20;92.50;;;;;;4998569;28;92276;-68
2021/03/21 01:43:45;;;;;;;;;;;4.20;92.50;;;;;;4996113;28;92519;-68
2021/03/21 01:46:15;;;;;;;;;;;4.20;92.50;;;;;;4993530;28;94117;-68
2021/03/21 01:49:00;;;;;;;;;;;4.20;92.50;;;;;;4994975;28;92173;-68
2021/03/21 01:51:28;;;;;;;;;;;4.20;92.50;;;;;;4995405;28;92197;-68
2021/03/21 01:53:58;;;;;;;;;;;4.10;92.50;;;;;;4997794;28;93404;-68
2021/03/21 01:56:25;;;;;;;;;;;4.10;92.40;;;;;;4996230;28;93662;-68
2021/03/21 01:59:00;;;;;;;;;;;4.20;92.50;;;;;;4998109;28;92608;-68
2021/03/21 02:01:27;;;;;;;;;;;4.10;92.50;;;;;;4994109;28;92247;-68
2021/03/21 02:03:53;;;;;;;;;;;4.20;92.50;;;;;;4996197;28;92235;-68
2021/03/21 02:06:27;;;;;;;;;;;4.20;92.40;;;;;;4993909;28;93214;-68
2021/03/21 02:09:13;;;;;;;;;;;4.10;92.40;;;;;;4997287;28;92177;-68
2021/03/21 02:11:50;;;;;;;;;;;4.20;92.50;;;;;;4997219;28;93127;-68
2021/03/21 02:14:15;;;;;;;;;;;4.10;92.40;;;;;;4996046;28;93291;-68
2021/03/21 02:16:53;;;;;;;;;;;4.10;92.40;;;;;;4999097;28;92208;-67
2021/03/21 02:19:34;;;;;;;;;;;4.10;92.40;;;;;;4997750;28;92211;-67
2021/03/21 02:22:01;;;;;;;;;;;4.10;92.40;;;;;;4996953;28;92284;-67
2021/03/21 02:24:53;;;;;;;;;;;4.10;92.40;;;;;;4995449;28;92385;-68
2021/03/21 02:27:21;;;;;;;;;;;4.10;92.50;;;;;;4970914;28;92703;-68
2021/03/21 02:29:50;;;;;;;;;;;4.10;92.50;;;;;;4995015;28;92394;-68
2021/03/21 02:32:18;;;;;;;;;;;4.10;92.50;;;;;;4997388;28;92268;-68
2021/03/21 02:34:43;;;;;;;;;;;4.10;92.50;;;;;;4994264;28;92819;-67
2021/03/21 02:37:20;;;;;;;;;;;4.10;92.50;;;;;;4995522;28;93241;-68
2021/03/21 02:40:14;;;;;;;;;;;4.10;92.50;;;;;;4999167;28;92705;-67
2021/03/21 02:42:42;;;;;;;;;;;4.10;92.50;;;;;;4984577;28;92393;-68
2021/03/21 02:45:17;;;;;;;;;;;4.10;92.50;;;;;;4995460;28;92202;-68
2021/03/21 02:47:44;;;;;;;;;;;4.10;92.50;;;;;;4996959;28;93222;-68
2021/03/21 02:50:18;;;;;;;;;;;4.10;92.50;;;;;;4995681;28;92235;-68
2021/03/21 02:53:06;;;;;;;;;;;4.10;92.50;;;;;;4993363;28;93042;-67
2021/03/21 02:55:32;;;;;;;;;;;4.10;92.50;;;;;;4987433;28;92361;-68
2021/03/21 02:58:00;;;;;;;;;;;4.10;92.50;;;;;;4996962;28;92183;-68
2021/03/21 03:00:29;;;;;;;;;;;4.10;92.50;;;;;;4994392;28;93712;-68
2021/03/21 03:02:57;;;;;;;;;;;4.10;92.80;;;;;;4998014;28;93618;-67
2021/03/21 03:05:29;;;;;;;;;;;4.10;92.50;;;;;;4994019;28;93584;-68
2021/03/21 03:08:30;;;;;;;;;;;4.10;92.60;;;;;;4993449;28;92650;-67
2021/03/21 03:11:34;;;;;;;;;;;4.10;92.50;;;;;;4934059;28;92340;-68
2021/03/21 03:14:00;;;;;;;;;;;4.10;92.50;;;;;;4932606;28;93691;-67
2021/03/21 03:16:31;;;;;;;;;;;4.10;92.50;;;;;;4935870;28;93534;-68
2021/03/21 03:19:02;;;;;;;;;;;4.10;92.50;;;;;;4965962;28;92293;-67
2021/03/21 03:21:39;;;;;;;;;;;4.10;92.50;;;;;;4995262;28;92511;-67
2021/03/21 03:24:10;;;;;;;;;;;4.00;92.50;;;;;;4992600;28;92637;-68
2021/03/21 03:26:42;;;;;;;;;;;4.00;92.50;;;;;;4996339;28;92306;-67
2021/03/21 03:29:19;;;;;;;;;;;4.00;92.50;;;;;;4991782;28;93614;-68
2021/03/21 03:31:54;;;;;;;;;;;4.00;92.40;;;;;;4997663;28;92204;-68
2021/03/21 03:34:19;;;;;;;;;;;4.00;92.40;;;;;;4997127;28;93884;-68
2021/03/21 03:36:45;;;;;;;;;;;4.00;92.40;;;;;;4996613;28;92221;-68
2021/03/21 03:39:11;;;;;;;;;;;4.10;92.40;;;;;;4995647;28;92805;-68
2021/03/21 03:41:39;;;;;;;;;;;4.00;92.40;;;;;;4996057;28;92229;-68
2021/03/21 03:44:23;;;;;;;;;;;4.00;92.40;;;;;;4993892;28;93062;-67
2021/03/21 03:46:51;;;;;;;;;;;4.00;92.40;;;;;;4997386;28;91539;-68
2021/03/21 03:49:43;;;;;;;;;;;4.00;92.50;;;;;;4998382;28;92222;-68
2021/03/21 03:52:11;;;;;;;;;;;4.00;92.50;;;;;;4970540;28;92362;-68
2021/03/21 03:54:46;;;;;;;;;;;4.00;92.50;;;;;;4996644;28;93129;-67
2021/03/21 03:57:17;;;;;;;;;;;4.00;92.50;;;;;;4991849;28;94556;-67
2021/03/21 03:59:53;;;;;;;;;;;4.00;92.50;;;;;;4992538;28;92239;-68
2021/03/21 04:02:22;;;;;;;;;;;4.00;92.50;;;;;;4992584;28;92519;-68
2021/03/21 04:04:49;;;;;;;;;;;4.00;92.50;;;;;;4994683;28;93410;-68
2021/03/21 04:07:21;;;;;;;;;;;4.00;92.50;;;;;;4995115;28;93321;-68
2021/03/21 04:09:57;;;;;;;;;;;4.00;92.50;;;;;;4998634;28;93053;-68
2021/03/21 04:12:34;;;;;;;;;;;4.00;92.50;;;;;;4995618;28;91486;-68
2021/03/21 04:15:20;;;;;;;;;;;4.00;92.50;;;;;;4994540;28;92206;-68
2021/03/21 04:17:52;;;;;;;;;;;4.00;92.50;;;;;;4993812;28;92678;-67
2021/03/21 04:20:22;;;;;;;;;;;4.00;92.50;;;;;;4993041;28;93170;-68
2021/03/21 04:22:51;;;;;;;;;;;4.00;92.50;;;;;;4993367;28;93417;-68
2021/03/21 04:25:24;;;;;;;;;;;4.00;92.50;;;;;;4995968;28;93938;-67
2021/03/21 04:28:10;;;;;;;;;;;4.00;92.50;;;;;;4993927;28;92173;-68
2021/03/21 04:30:36;;;;;;;;;;;4.00;92.50;;;;;;4993661;28;92852;-68
2021/03/21 04:33:02;;;;;;;;;;;4.00;92.50;;;;;;4996416;28;93227;-68
2021/03/21 04:35:30;;;;;;;;;;;3.90;92.50;;;;;;4992389;28;93071;-67
2021/03/21 04:37:59;;;;;;;;;;;4.00;92.50;;;;;;4995023;28;92667;-68
2021/03/21 04:40:25;;;;;;;;;;;3.90;92.50;;;;;;4994260;28;93534;-68
2021/03/21 04:42:52;;;;;;;;;;;3.90;92.50;;;;;;4995840;28;92320;-68
2021/03/21 04:45:20;;;;;;;;;;;4.00;92.50;;;;;;4991156;28;93329;-68
2021/03/21 04:47:49;;;;;;;;;;;3.90;92.50;;;;;;4994904;28;92297;-68
2021/03/21 04:50:17;;;;;;;;;;;3.90;92.50;;;;;;4992879;28;92380;-68
2021/03/21 04:52:45;;;;;;;;;;;3.90;92.50;;;;;;4999117;28;93124;-68
2021/03/21 04:55:19;;;;;;;;;;;3.90;92.50;;;;;;5000874;28;92189;-68
2021/03/21 04:57:45;;;;;;;;;;;3.90;92.50;;;;;;4998908;28;92914;-67
2021/03/21 05:00:15;;;;;;;;;;;3.90;92.50;;;;;;4998236;28;92181;-68
2021/03/21 05:02:44;;;;;;;;;;;3.90;92.50;;;;;;4999481;28;94856;-68
2021/03/21 05:05:15;;;;;;;;;;;3.90;92.50;;;;;;4994160;28;93408;-68
2021/03/21 05:07:46;;;;;;;;;;;3.90;92.60;;;;;;4997780;28;93052;-68
2021/03/21 05:10:27;;;;;;;;;;;3.90;92.50;;;;;;4997583;28;94772;-67
2021/03/21 05:13:05;;;;;;;;;;;3.90;92.50;;;;;;4994825;28;92702;-68
2021/03/21 05:15:31;;;;;;;;;;;3.90;92.50;;;;;;4999027;28;92238;-67
2021/03/21 05:18:02;;;;;;;;;;;3.90;92.50;;;;;;5000282;28;93596;-67
2021/03/21 05:20:28;;;;;;;;;;;3.90;92.60;;;;;;4999535;28;92175;-68
2021/03/21 05:22:56;;;;;;;;;;;3.90;92.60;;;;;;4999259;28;92205;-68
2021/03/21 05:25:26;;;;;;;;;;;3.90;92.50;;;;;;4995811;28;92782;-68
2021/03/21 05:28:04;;;;;;;;;;;3.90;92.60;;;;;;4998127;28;91554;-68
2021/03/21 05:30:31;;;;;;;;;;;3.90;92.50;;;;;;4994545;28;92204;-68
2021/03/21 05:32:57;;;;;;;;;;;3.90;92.50;;;;;;4997881;28;92632;-68
2021/03/21 05:35:24;;;;;;;;;;;3.90;92.50;;;;;;4997404;28;93193;-68
2021/03/21 05:38:07;;;;;;;;;;;3.90;92.50;;;;;;4996644;28;92994;-68
2021/03/21 05:40:39;;;;;;;;;;;3.90;92.60;;;;;;4997565;28;92671;-68
2021/03/21 05:43:16;;;;;;;;;;;3.90;92.50;;;;;;4998353;28;92976;-67
2021/03/21 05:45:54;;;;;;;;;;;3.90;92.50;;;;;;4997175;28;92729;-68
2021/03/21 05:48:31;;;;;;;;;;;3.90;92.50;;;;;;4994627;28;92186;-68
2021/03/21 05:51:15;;;;;;;;;;;3.90;92.50;;;;;;4999205;28;92222;-67
2021/03/21 05:53:41;;;;;;;;;;;3.90;92.60;;;;;;4994914;28;92313;-68
2021/03/21 05:56:27;;;;;;;;;;;3.90;92.50;;;;;;4995629;28;92175;-68
2021/03/21 05:58:59;;;;;;;;;;;3.90;92.50;;;;;;4995130;28;92195;-68
2021/03/21 06:01:24;;;;;;;;;;;3.90;92.60;;;;;;4997062;28;94467;-68
2021/03/21 06:03:50;;;;;;;;;;;3.90;92.60;;;;;;5000829;28;92250;-68
2021/03/21 06:06:15;;;;;;;;;;;3.90;92.60;;;;;;4996665;28;92746;-67
2021/03/21 06:09:04;;;;;;;;;;;3.90;92.60;;;;;;4994115;28;92234;-68
2021/03/21 06:11:32;;;;;;;;;;;3.90;92.60;;;;;;4969217;28;92509;-68
2021/03/21 06:14:01;;;;;;;;;;;3.90;92.60;;;;;;4994115;28;93054;-68
2021/03/21 06:16:29;;;;;;;;;;;3.90;92.60;;;;;;4997035;28;92298;-68
2021/03/21 06:18:54;;;;;;;;;;;3.90;92.60;;;;;;4994767;28;91717;-68
2021/03/21 06:21:43;;;;;;;;;;;3.90;92.60;;;;;;4994903;28;92823;-68
2021/03/21 06:24:14;;;;;;;;;;;3.90;92.60;;;;;;5000680;28;93235;-68
2021/03/21 06:26:43;;;;;;;;;;;3.90;92.60;;;;;;4997239;28;93637;-68
2021/03/21 06:29:28;;;;;;;;;;;3.90;92.50;;;;;;4993756;28;92282;-68
2021/03/21 06:32:04;;;;;;;;;;;3.90;92.60;;;;;;4996842;28;92379;-67
2021/03/21 06:34:32;;;;;;;;;;;3.90;92.50;;;;;;4996991;28;92850;-68
2021/03/21 06:37:07;;;;;;;;;;;3.90;92.50;;;;;;4994753;28;92183;-67
2021/03/21 06:39:56;;;;;;;;;;;3.90;92.50;;;;;;4997272;28;92382;-68
2021/03/21 06:42:40;;;;;;;;;;;3.90;92.60;;;;;;4993135;28;92895;-68
2021/03/21 06:45:12;;;;;;;;;;;3.90;92.60;;;;;;4995641;28;91542;-68
2021/03/21 06:47:43;;;;;;;;;;;3.90;92.50;;;;;;4996992;28;92309;-68
2021/03/21 06:50:09;;;;;;;;;;;3.90;92.50;;;;;;4994578;28;92164;-68
2021/03/21 06:52:43;;;;;;;;;;;3.90;92.50;;;;;;4995300;28;93131;-68
2021/03/21 06:55:17;;;;;;;;;;;3.90;92.60;;;;;;4996703;28;93772;-68
2021/03/21 06:57:42;;;;;;;;;;;3.90;92.60;;;;;;4994585;28;92223;-67
2021/03/21 07:00:11;;;;;;;;;;;3.90;92.60;;;;;;4995457;28;92236;-68
2021/03/21 07:03:02;;;;;;;;;;;3.90;92.60;;;;;;4993400;28;92944;-67
2021/03/21 07:05:30;;;;;;;;;;;3.90;92.60;;;;;;4972911;28;93734;-68
2021/03/21 07:08:05;;;;;;;;;;;3.90;92.50;;;;;;4995958;28;92186;-68
2021/03/21 07:10:45;;;;;;;;;;;3.90;92.60;;;;;;5000490;28;92461;-68
2021/03/21 07:13:11;;;;;;;;;;;3.90;92.50;;;;;;4995894;28;92375;-68
2021/03/21 07:15:36;;;;;;;;;;;3.90;92.60;;;;;;4996922;28;93223;-68
2021/03/21 07:18:08;;;;;;;;;;;3.90;92.60;;;;;;4996863;28;93242;-68
2021/03/21 07:20:33;;;;;;;;;;;3.90;92.60;;;;;;4996765;28;93453;-68
2021/03/21 07:23:05;;;;;;;;;;;3.90;92.60;;;;;;4996812;28;93269;-68
2021/03/21 07:25:49;;;;;;;;;;;3.90;92.60;;;;;;4996269;28;92162;-68
2021/03/21 07:28:33;;;;;;;;;;;3.90;92.60;;;;;;4995545;28;92980;-68
2021/03/21 07:31:02;;;;;;;;;;;3.90;92.60;;;;;;4992612;28;93167;-68
2021/03/21 07:33:33;;;;;;;;;;;3.90;92.60;;;;;;4998494;28;92184;-68
2021/03/21 07:36:01;;;;;;;;;;;3.90;92.60;;;;;;4995976;28;92498;-68
2021/03/21 07:38:43;;;;;;;;;;;3.90;92.60;;;;;;4994044;28;93792;-68
2021/03/21 07:41:09;;;;;;;;;;;3.90;92.60;;;;;;4996092;28;93789;-68
2021/03/21 07:43:34;;;;;;;;;;;4.00;92.60;;;;;;4995893;28;93863;-68
2021/03/21 07:46:03;;;;;;;;;;;3.90;92.60;;;;;;4997185;28;92181;-68
2021/03/21 07:48:28;;;;;;;;;;;3.90;92.60;;;;;;4992730;28;92540;-68
2021/03/21 07:50:54;;;;;;;;;;;3.90;92.60;;;;;;4993305;28;92434;-68
2021/03/21 07:53:25;;;;;;;;;;;3.90;92.60;;;;;;4994014;28;92259;-68
2021/03/21 07:55:55;;;;;;;;;;;3.90;92.60;;;;;;4995771;28;92224;-68
2021/03/21 07:58:25;;;;;;;;;;;4.00;92.60;;;;;;4993869;28;92191;-68
2021/03/21 08:00:51;;;;;;;;;;;3.90;92.60;;;;;;4995007;28;93958;-68
2021/03/21 08:03:22;;;;;;;;;;;3.90;92.60;;;;;;4994854;28;95258;-68
2021/03/21 08:05:51;;;;;;;;;;;4.00;92.60;;;;;;4995810;28;92261;-68
2021/03/21 08:08:20;;;;;;;;;;;3.90;92.60;;;;;;4992782;28;93996;-68
2021/03/21 08:10:51;;;;;;;;;;;3.90;92.60;;;;;;4993618;28;92749;-68
2021/03/21 08:13:23;;;;;;;;;;;3.90;92.60;;;;;;4994044;28;92209;-68
2021/03/21 08:15:49;;;;;;;;;;;4.00;92.60;;;;;;4995747;28;92485;-68
2021/03/21 08:18:15;;;;;;;;;;;4.00;92.60;;;;;;4992971;28;92275;-68
2021/03/21 08:20:47;;;;;;;;;;;4.00;92.50;;;;;;4992146;28;92239;-68
2021/03/21 08:23:26;;;;;;;;;;;4.00;92.60;;;;;;4995090;28;92768;-68
2021/03/21 08:25:52;;;;;;;;;;;3.90;92.60;;;;;;4998028;28;91533;-68
2021/03/21 08:28:19;;;;;;;;;;;4.00;92.60;;;;;;5000035;28;92224;-68
2021/03/21 08:30:52;;;;;;;;;;;3.90;92.60;;;;;;4998588;28;92918;-68
2021/03/21 08:33:32;;;;;;;;;;;4.00;92.60;;;;;;4995373;28;94777;-68
2021/03/21 08:36:06;;;;;;;;;;;4.00;92.60;;;;;;4996195;28;92211;-68
2021/03/21 08:38:32;;;;;;;;;;;4.00;92.60;;;;;;5000040;28;92902;-68
2021/03/21 08:40:59;;;;;;;;;;;4.00;92.60;;;;;;4996142;28;92764;-68
2021/03/21 08:43:27;;;;;;;;;;;4.00;92.60;;;;;;4996352;28;94482;-68
2021/03/21 08:45:55;;;;;;;;;;;4.00;92.60;;;;;;4999175;28;92175;-68
2021/03/21 08:48:25;;;;;;;;;;;4.00;92.60;;;;;;4995910;28;92816;-68
2021/03/21 08:50:52;;;;;;;;;;;4.00;92.50;;;;;;4995059;28;91933;-67
2021/03/21 08:53:27;;;;;;;;;;;4.00;92.50;;;;;;4999138;28;93016;-68
2021/03/21 08:56:12;;;;;;;;;;;4.00;92.50;;;;;;4995872;28;92215;-68
2021/03/21 08:58:38;;;;;;;;;;;4.00;92.50;;;;;;4994606;28;93551;-68
2021/03/21 09:01:11;;;;;;;;;;;4.00;92.60;;;;;;4999315;28;92264;-68
2021/03/21 09:03:36;;;;;;;;;;;4.00;92.50;;;;;;4994864;28;93799;-67
2021/03/21 09:06:02;;;;;;;;;;;4.00;92.60;;;;;;4995817;28;93035;-68
2021/03/21 09:08:29;;;;;;;;;;;4.10;92.60;;;;;;4995763;28;93435;-68
2021/03/21 09:10:56;;;;;;;;;;;4.10;92.60;;;;;;4998470;28;92710;-67
2021/03/21 09:13:23;;;;;;;;;;;4.10;92.50;;;;;;4997957;28;92182;-68
2021/03/21 09:15:58;;;;;;;;;;;4.10;92.50;;;;;;4997678;28;92532;-68
2021/03/21 09:18:24;;;;;;;;;;;4.10;92.50;;;;;;4998363;28;92903;-67
2021/03/21 09:20:50;;;;;;;;;;;4.10;92.50;;;;;;4999428;28;92193;-68
2021/03/21 09:23:28;;;;;;;;;;;4.10;92.50;;;;;;5000915;28;93370;-68
2021/03/21 09:25:56;;;;;;;;;;;4.10;92.40;;;;;;4995449;28;92230;-67
2021/03/21 09:28:24;;;;;;;;;;;4.10;92.50;;;;;;4996378;28;93822;-68
2021/03/21 09:30:49;;;;;;;;;;;4.10;92.50;;;;;;4998420;28;92736;-68
2021/03/21 09:33:20;;;;;;;;;;;4.20;92.50;;;;;;4999378;28;92178;-67
2021/03/21 09:35:53;;;;;;;;;;;4.20;92.50;;;;;;4997786;28;92228;-68
2021/03/21 09:38:21;;;;;;;;;;;4.20;92.50;;;;;;4993813;28;93789;-68
2021/03/21 09:40:52;;;;;;;;;;;4.20;92.50;;;;;;4997246;28;91472;-68
2021/03/21 09:43:20;;;;;;;;;;;4.20;92.50;;;;;;4995738;28;92175;-67
2021/03/21 09:45:50;;;;;;;;;;;4.20;92.50;;;;;;4999949;28;93008;-68
2021/03/21 09:48:23;;;;;;;;;;;4.20;92.50;;;;;;4998338;28;93132;-67
2021/03/21 09:50:59;;;;;;;;;;;4.20;92.40;;;;;;4996033;28;92669;-67
2021/03/21 09:53:24;;;;;;;;;;;4.20;92.50;;;;;;4997515;28;92168;-68
2021/03/21 09:55:51;;;;;;;;;;;4.20;92.50;;;;;;4998479;28;92193;-67
2021/03/21 09:58:35;;;;;;;;;;;4.30;92.50;;;;;;4996615;28;93216;-67
2021/03/21 10:01:19;;;;;;;;;;;4.20;92.50;;;;;;4994384;28;94067;-68
2021/03/21 10:03:47;;;;;;;;;;;4.20;92.50;;;;;;4996412;28;93780;-67
2021/03/21 10:06:17;;;;;;;;;;;4.20;92.50;;;;;;4994179;28;92474;-67
2021/03/21 10:08:52;;;;;;;;;;;4.20;92.50;;;;;;4997787;28;92135;-68
2021/03/21 10:11:21;;;;;;;;;;;4.20;92.50;;;;;;4995746;28;93407;-67
2021/03/21 10:13:46;;;;;;;;;;;4.20;92.50;;;;;;4993627;28;94092;-67
2021/03/21 10:16:15;;;;;;;;;;;4.20;92.50;;;;;;4994950;28;93545;-67
2021/03/21 10:18:44;;;;;;;;;;;4.20;92.60;;;;;;4997036;28;93031;-67
2021/03/21 10:21:22;;;;;;;;;;;4.20;92.60;;;;;;4998472;28;92184;-67
2021/03/21 10:23:48;;;;;;;;;;;4.20;92.60;;;;;;4994780;28;92665;-67
2021/03/21 10:26:14;;;;;;;;;;;4.20;92.60;;;;;;4992840;28;93457;-67
2021/03/21 10:28:43;;;;;;;;;;;4.20;92.50;;;;;;4998560;28;93490;-68
2021/03/21 10:31:21;;;;;;;;;;;4.20;92.50;;;;;;4994377;28;93717;-67
2021/03/21 10:33:47;;;;;;;;;;;4.20;92.60;;;;;;4997783;28;92977;-67
2021/03/21 10:36:32;;;;;;;;;;;4.20;92.60;;;;;;4997507;28;93126;-67
2021/03/21 10:38:59;;;;;;;;;;;4.30;92.60;;;;;;4993998;28;94309;-67
2021/03/21 10:41:43;;;;;;;;;;;4.20;92.80;;;;;;4997279;28;93657;-67
2021/03/21 10:44:09;;;;;;;;;;;4.20;92.60;;;;;;4993284;28;92673;-67
2021/03/21 10:46:48;;;;;;;;;;;4.30;92.60;;;;;;4996912;28;93643;-67
2021/03/21 10:49:33;;;;;;;;;;;4.20;92.60;;;;;;4993317;28;92219;-68
2021/03/21 10:52:21;;;;;;;;;;;4.20;92.60;;;;;;4997372;28;92538;-68
2021/03/21 10:54:47;;;;;;;;;;;4.30;92.60;;;;;;4997548;28;92166;-67
2021/03/21 10:57:23;;;;;;;;;;;4.30;92.60;;;;;;4995952;28;93791;-67
2021/03/21 11:00:09;;;;;;;;;;;4.30;92.60;;;;;;4995376;28;93016;-67
2021/03/21 11:02:35;;;;;;;;;;;4.30;92.60;;;;;;4996451;28;92190;-67
2021/03/21 11:05:03;;;;;;;;;;;4.30;92.60;;;;;;4996320;28;93130;-67
2021/03/21 11:07:29;;;;;;;;;;;4.30;92.60;;;;;;4993178;28;96567;-67
2021/03/21 11:09:59;;;;;;;;;;;4.30;92.60;;;;;;4994684;28;92254;-67
2021/03/21 11:12:43;;;;;;;;;;;4.30;92.60;;;;;;4996430;28;92362;-68
2021/03/21 11:15:31;;;;;;;;;;;4.30;92.60;;;;;;4996173;28;93468;-68
2021/03/21 11:18:00;;;;;;;;;;;4.30;92.60;;;;;;4996585;28;93466;-67
2021/03/21 11:20:28;;;;;;;;;;;4.30;92.60;;;;;;4993623;28;93095;-67
2021/03/21 11:22:53;;;;;;;;;;;4.30;92.60;;;;;;4997036;28;93330;-67
2021/03/21 11:25:30;;;;;;;;;;;4.40;92.60;;;;;;4997199;28;93685;-68
2021/03/21 11:27:55;;;;;;;;;;;4.30;92.70;;;;;;4995741;28;93846;-67
2021/03/21 11:30:26;;;;;;;;;;;4.40;92.70;;;;;;4992420;28;94491;-67
2021/03/21 11:32:52;;;;;;;;;;;4.40;92.60;;;;;;4993544;28;94847;-67
2021/03/21 11:35:25;;;;;;;;;;;4.40;92.60;;;;;;4993103;28;93091;-68
2021/03/21 11:37:51;;;;;;;;;;;4.40;92.60;;;;;;5000257;28;92203;-67
2021/03/21 11:40:20;;;;;;;;;;;4.40;92.60;;;;;;4996783;28;92215;-68
2021/03/21 11:42:48;;;;;;;;;;;4.40;92.60;;;;;;4993492;28;92179;-68
2021/03/21 11:45:13;;;;;;;;;;;4.40;92.60;;;;;;4997199;28;92209;-67
2021/03/21 11:47:40;;;;;;;;;;;4.40;92.60;;;;;;4997374;28;92004;-67
2021/03/21 11:50:07;;;;;;;;;;;4.40;92.60;;;;;;4995094;28;92153;-68
2021/03/21 11:52:36;;;;;;;;;;;4.40;92.60;;;;;;4992475;28;94549;-68
2021/03/21 11:55:01;;;;;;;;;;;4.40;92.60;;;;;;4992656;28;94253;-68
2021/03/21 11:57:31;;;;;;;;;;;4.50;92.70;;;;;;4993827;28;92232;-68
2021/03/21 12:00:14;;;;;;;;;;;4.40;92.60;;;;;;4997098;28;92386;-68
2021/03/21 12:02:59;;;;;;;;;;;4.50;92.70;;;;;;4996740;28;92230;-68
2021/03/21 12:05:30;;;;;;;;;;;4.50;92.60;;;;;;4985415;28;93484;-68
2021/03/21 12:08:14;;;;;;;;;;;4.50;92.70;;;;;;4996085;28;93208;-68
2021/03/21 12:10:41;;;;;;;;;;;4.50;92.70;;;;;;4999594;28;92155;-68
2021/03/21 12:13:42;;;;;;;;;;;4.50;92.70;;;;;;4998064;28;91982;-68
2021/03/21 12:16:27;;;;;;;;;;;4.50;92.70;;;;;;4936734;28;93157;-68
2021/03/21 12:18:53;;;;;;;;;;;4.50;92.60;;;;;;4993981;28;93313;-68
2021/03/21 12:21:19;;;;;;;;;;;4.50;92.70;;;;;;4998422;28;93185;-67
2021/03/21 12:23:47;;;;;;;;;;;4.50;92.70;;;;;;5001211;28;92699;-68
2021/03/21 12:26:12;;;;;;;;;;;4.50;92.70;;;;;;4996252;28;92335;-68
2021/03/21 12:28:46;;;;;;;;;;;4.50;92.70;;;;;;4995432;28;93282;-68
2021/03/21 12:31:14;;;;;;;;;;;4.50;92.70;;;;;;4998244;28;92165;-68
2021/03/21 12:33:39;;;;;;;;;;;4.60;92.70;;;;;;4997029;28;92449;-68
2021/03/21 12:36:08;;;;;;;;;;;4.60;92.70;;;;;;4996282;28;93307;-67
2021/03/21 12:38:35;;;;;;;;;;;4.50;92.70;;;;;;4999519;28;91447;-68
2021/03/21 12:41:20;;;;;;;;;;;4.60;92.70;;;;;;4995919;28;92285;-68
2021/03/21 12:44:06;;;;;;;;;;;4.60;92.70;;;;;;4998210;28;93306;-67
2021/03/21 12:46:40;;;;;;;;;;;4.60;92.70;;;;;;4994505;28;93211;-68
2021/03/21 12:49:11;;;;;;;;;;;4.60;93.00;;;;;;4996654;28;93235;-68
2021/03/21 12:51:36;;;;;;;;;;;4.60;92.70;;;;;;4997954;28;92170;-68
2021/03/21 12:54:04;;;;;;;;;;;4.50;92.70;;;;;;4999349;28;92145;-68
2021/03/21 12:56:30;;;;;;;;;;;4.60;92.80;;;;;;4995408;28;93090;-68
2021/03/21 12:58:55;;;;;;;;;;;4.60;92.80;;;;;;4995327;28;92150;-68
2021/03/21 13:01:21;;;;;;;;;;;4.60;92.80;;;;;;4996449;28;92274;-68
2021/03/21 13:03:47;;;;;;;;;;;4.60;92.90;;;;;;4997346;28;92633;-68
2021/03/21 13:06:13;;;;;;;;;;;4.50;92.80;;;;;;5000965;28;92226;-68
2021/03/21 13:08:39;;;;;;;;;;;4.60;92.90;;;;;;4997270;28;92686;-68
2021/03/21 13:11:05;;;;;;;;;;;4.60;92.80;;;;;;4995212;28;93152;-68
2021/03/21 13:13:32;;;;;;;;;;;4.60;92.90;;;;;;4995060;28;93554;-68
2021/03/21 13:15:57;;;;;;;;;;;4.60;92.90;;;;;;4996337;28;92780;-68
2021/03/21 13:18:24;;;;;;;;;;;4.50;92.90;;;;;;4996138;28;93889;-68
2021/03/21 13:20:53;;;;;;;;;;;4.60;92.90;;;;;;4997553;28;93537;-68
2021/03/21 13:23:18;;;;;;;;;;;4.60;92.80;;;;;;4995620;28;92685;-68
2021/03/21 13:25:44;;;;;;;;;;;4.60;92.80;;;;;;4995387;28;92187;-68
2021/03/21 13:28:10;;;;;;;;;;;4.60;92.90;;;;;;4999346;28;92443;-68
2021/03/21 13:30:41;;;;;;;;;;;4.60;92.90;;;;;;4996721;28;92173;-68
2021/03/21 13:33:07;;;;;;;;;;;4.60;93.20;;;;;;4998231;28;92820;-68
2021/03/21 13:35:33;;;;;;;;;;;4.60;92.90;;;;;;4996350;28;93796;-68
2021/03/21 13:37:59;;;;;;;;;;;4.60;92.80;;;;;;4997470;28;92198;-68
2021/03/21 13:40:27;;;;;;;;;;;4.60;92.80;;;;;;4997424;28;92618;-68
2021/03/21 13:42:52;;;;;;;;;;;4.60;92.90;;;;;;4994561;28;95602;-68
2021/03/21 13:45:20;;;;;;;;;;;4.60;92.90;;;;;;4996104;28;92283;-68
2021/03/21 13:47:45;;;;;;;;;;;4.50;92.90;;;;;;4994534;28;92465;-68
2021/03/21 13:50:11;;;;;;;;;;;4.60;92.90;;;;;;4998314;28;93459;-68
2021/03/21 13:52:37;;;;;;;;;;;4.50;92.80;;;;;;4995387;28;92502;-68
2021/03/21 13:55:04;;;;;;;;;;;4.50;92.90;;;;;;4993712;28;93297;-68
2021/03/21 13:57:29;;;;;;;;;;;4.60;92.90;;;;;;4997755;28;92195;-68
2021/03/21 13:59:55;;;;;;;;;;;4.50;92.90;;;;;;4996767;28;93226;-68
2021/03/21 14:02:21;;;;;;;;;;;4.60;92.90;;;;;;4996210;28;93223;-68
2021/03/21 14:04:46;;;;;;;;;;;4.60;92.90;;;;;;4997054;28;92180;-68
2021/03/21 14:07:11;;;;;;;;;;;4.60;93.00;;;;;;4996555;28;92602;-68
2021/03/21 14:09:37;;;;;;;;;;;4.60;92.90;;;;;;4997061;28;93109;-68
2021/03/21 14:12:03;;;;;;;;;;;4.50;92.90;;;;;;5000892;28;92237;-68
2021/03/21 14:14:28;;;;;;;;;;;4.50;93.00;;;;;;4996162;28;92801;-68
2021/03/21 14:16:54;;;;;;;;;;;4.60;93.00;;;;;;4996783;28;91428;-68
2021/03/21 14:19:19;;;;;;;;;;;4.50;92.90;;;;;;4995120;28;92205;-68
2021/03/21 14:21:45;;;;;;;;;;;4.60;93.00;;;;;;4993883;28;93220;-68
2021/03/21 14:24:11;;;;;;;;;;;4.50;93.00;;;;;;4994306;28;93264;-68
2021/03/21 14:26:37;;;;;;;;;;;4.60;93.00;;;;;;4998325;28;92874;-68
2021/03/21 14:29:02;;;;;;;;;;;4.60;92.90;;;;;;4997403;28;93211;-68
2021/03/21 14:31:28;;;;;;;;;;;4.60;93.00;;;;;;4997222;28;92248;-68
2021/03/21 14:33:53;;;;;;;;;;;4.50;93.00;;;;;;4999064;28;92185;-68
2021/03/21 14:36:19;;;;;;;;;;;4.50;93.00;;;;;;4997474;28;92238;-68
2021/03/21 14:38:45;;;;;;;;;;;4.60;93.00;;;;;;4998317;28;92251;-68
2021/03/21 14:41:11;;;;;;;;;;;4.60;93.00;;;;;;4997984;28;91844;-68
2021/03/21 14:43:36;;;;;;;;;;;4.60;93.00;;;;;;4998164;28;92178;-68
2021/03/21 14:46:02;;;;;;;;;;;4.50;93.00;;;;;;4996614;28;93946;-68
2021/03/21 14:48:28;;;;;;;;;;;4.60;93.00;;;;;;4996926;28;93516;-68
2021/03/21 14:50:54;;;;;;;;;;;4.60;93.10;;;;;;4997239;28;92168;-68